createdAt,value
2023-11-20T00:00:14.475Z,35.66
2023-11-20T00:00:44.554Z,35.68
2023-11-20T00:01:14.666Z,35.58
2023-11-20T00:01:44.610Z,35.65
2023-11-20T00:02:14.733Z,35.67
2023-11-20T00:02:45.110Z,35.62
2023-11-20T00:03:14.870Z,35.62
2023-11-20T00:04:23.937Z,35.69
2023-11-20T00:04:53.889Z,35.69
2023-11-20T00:05:23.854Z,35.71
2023-11-20T00:05:53.959Z,35.72
2023-11-20T00:06:24.037Z,35.70
2023-11-20T00:06:54.228Z,35.72
2023-11-20T00:07:24.236Z,35.69
2023-11-20T00:07:54.322Z,35.73
2023-11-20T00:08:24.429Z,35.72
2023-11-20T00:08:54.592Z,35.72
2023-11-20T00:09:24.549Z,35.70
2023-11-20T00:09:54.695Z,35.73
2023-11-20T00:10:24.660Z,35.72
2023-11-20T00:10:54.756Z,35.72
2023-11-20T00:11:24.865Z,35.75
2023-11-20T00:11:54.976Z,35.69
2023-11-20T00:12:25.055Z,35.69
2023-11-20T00:12:55.171Z,35.72
2023-11-20T00:13:25.254Z,35.69
2023-11-20T00:13:55.343Z,35.75
2023-11-20T00:14:25.362Z,35.72
2023-11-20T00:14:55.365Z,35.72
2023-11-20T00:15:25.364Z,35.70
2023-11-20T00:15:55.684Z,35.71
2023-11-20T00:16:25.735Z,35.74
2023-11-20T00:16:55.683Z,35.69
2023-11-20T00:17:25.691Z,35.69
2023-11-20T00:17:55.710Z,35.72
2023-11-20T00:18:25.736Z,35.68
2023-11-20T00:18:55.884Z,35.75
2023-11-20T00:19:25.800Z,35.72
2023-11-20T00:19:55.811Z,35.71
2023-11-20T00:20:25.820Z,35.72
2023-11-20T00:20:55.824Z,35.73
2023-11-20T00:21:25.867Z,35.70
2023-11-20T00:21:55.882Z,35.71
2023-11-20T00:22:25.873Z,35.68
2023-11-20T00:22:55.867Z,35.68
2023-11-20T00:23:25.902Z,35.72
2023-11-20T00:23:55.890Z,35.66
2023-11-20T00:24:25.893Z,35.63
2023-11-20T00:25:26.009Z,35.71
2023-11-20T00:25:56.028Z,35.71
2023-11-20T00:26:26.028Z,35.69
2023-11-20T00:26:56.030Z,35.68
2023-11-20T00:27:26.050Z,35.69
2023-11-20T00:27:56.104Z,35.64
2023-11-20T00:28:26.110Z,35.66
2023-11-20T00:28:56.112Z,35.71
2023-11-20T00:29:26.240Z,35.65
2023-11-20T00:29:56.273Z,35.66
2023-11-20T00:30:26.347Z,35.71
2023-11-20T00:30:56.357Z,35.68
2023-11-20T00:31:26.399Z,35.66
2023-11-20T00:31:56.436Z,35.68
2023-11-20T00:32:26.437Z,35.68
2023-11-20T00:32:56.448Z,35.71
2023-11-20T00:33:26.579Z,35.68
2023-11-20T00:33:56.496Z,35.71
2023-11-20T00:34:26.493Z,35.71
2023-11-20T00:34:56.649Z,35.71
2023-11-20T00:35:26.658Z,35.71
2023-11-20T00:35:56.674Z,35.68
2023-11-20T00:36:26.896Z,35.72
2023-11-20T00:36:56.739Z,35.72
2023-11-20T00:37:26.738Z,35.68
2023-11-20T00:37:56.735Z,35.69
2023-11-20T00:38:26.868Z,35.69
2023-11-20T00:38:56.858Z,35.72
2023-11-20T00:39:27.079Z,35.66
2023-11-20T00:39:57.113Z,35.69
2023-11-20T00:40:27.113Z,35.68
2023-11-20T00:40:57.229Z,35.70
2023-11-20T00:41:27.356Z,35.73
2023-11-20T00:41:57.357Z,35.72
2023-11-20T00:42:27.385Z,35.73
2023-11-20T00:42:57.376Z,35.73
2023-11-20T00:43:27.506Z,35.66
2023-11-20T00:43:57.517Z,35.73
2023-11-20T00:44:27.679Z,35.70
2023-11-20T00:44:57.672Z,35.68
2023-11-20T00:45:27.702Z,35.73
2023-11-20T00:45:57.814Z,35.70
2023-11-20T00:46:27.916Z,35.78
2023-11-20T00:46:57.993Z,35.66
2023-11-20T00:47:28.004Z,35.71
2023-11-20T00:47:58.052Z,35.78
2023-11-20T00:48:28.172Z,35.73
2023-11-20T00:48:58.144Z,35.70
2023-11-20T00:49:28.180Z,35.70
2023-11-20T00:49:58.204Z,35.73
2023-11-20T00:50:28.199Z,35.72
2023-11-20T00:50:58.205Z,35.73
2023-11-20T00:51:28.240Z,35.73
2023-11-20T00:51:58.296Z,35.72
2023-11-20T00:52:28.311Z,35.68
2023-11-20T00:52:58.301Z,35.68
2023-11-20T00:53:28.455Z,35.69
2023-11-20T00:53:58.485Z,35.73
2023-11-20T00:54:28.526Z,35.71
2023-11-20T00:54:58.555Z,35.72
2023-11-20T00:55:28.557Z,35.69
2023-11-20T00:55:58.566Z,35.69
2023-11-20T00:56:28.603Z,35.74
2023-11-20T00:56:58.603Z,35.68
2023-11-20T00:57:28.652Z,35.68
2023-11-20T00:57:58.732Z,35.69
2023-11-20T00:58:28.756Z,35.68
2023-11-20T00:58:58.784Z,35.71
2023-11-20T00:59:28.778Z,35.66
2023-11-20T00:59:58.790Z,35.66
2023-11-20T01:00:28.978Z,35.71
2023-11-20T01:00:59.082Z,35.72
2023-11-20T01:01:29.098Z,35.68
2023-11-20T01:01:59.135Z,35.66
2023-11-20T01:02:29.164Z,35.69
2023-11-20T01:02:59.300Z,35.68
2023-11-20T01:03:29.432Z,35.66
2023-11-20T01:03:59.322Z,35.69
2023-11-20T01:04:29.350Z,35.71
2023-11-20T01:04:59.312Z,35.69
2023-11-20T01:05:29.409Z,35.69
2023-11-20T01:05:59.511Z,35.66
2023-11-20T01:06:29.636Z,35.65
2023-11-20T01:06:59.834Z,35.68
2023-11-20T01:07:29.771Z,35.65
2023-11-20T01:07:59.881Z,35.68
2023-11-20T01:08:29.962Z,35.68
2023-11-20T01:09:00.056Z,35.69
2023-11-20T01:09:30.159Z,35.65
2023-11-20T01:10:00.274Z,35.71
2023-11-20T01:10:30.131Z,35.66
2023-11-20T01:11:00.287Z,35.68
2023-11-20T01:11:30.255Z,35.69
2023-11-20T01:12:00.360Z,35.65
2023-11-20T01:12:30.397Z,35.66
2023-11-20T01:13:00.416Z,35.63
2023-11-20T01:13:30.383Z,35.68
2023-11-20T01:14:00.488Z,35.66
2023-11-20T01:14:30.488Z,35.68
2023-11-20T01:15:00.523Z,35.65
2023-11-20T01:15:30.632Z,35.62
2023-11-20T01:16:00.550Z,35.66
2023-11-20T01:16:30.593Z,35.66
2023-11-20T01:17:00.596Z,35.64
2023-11-20T01:17:30.647Z,35.63
2023-11-20T01:18:00.725Z,35.69
2023-11-20T01:18:30.862Z,35.68
2023-11-20T01:19:00.859Z,35.63
2023-11-20T01:19:30.865Z,35.65
2023-11-20T01:20:00.872Z,35.63
2023-11-20T01:20:30.887Z,35.66
2023-11-20T01:21:00.893Z,35.66
2023-11-20T01:21:30.946Z,35.62
2023-11-20T01:22:00.972Z,35.64
2023-11-20T01:22:30.977Z,35.66
2023-11-20T01:23:00.964Z,35.60
2023-11-20T01:23:30.992Z,35.68
2023-11-20T01:24:01.006Z,35.64
2023-11-20T01:24:31.059Z,35.65
2023-11-20T01:25:01.087Z,35.65
2023-11-20T01:25:31.099Z,35.65
2023-11-20T01:26:01.223Z,35.62
2023-11-20T01:26:31.166Z,35.65
2023-11-20T01:27:01.196Z,35.62
2023-11-20T01:27:31.236Z,35.63
2023-11-20T01:28:01.380Z,35.64
2023-11-20T01:28:31.407Z,35.61
2023-11-20T01:29:01.387Z,35.65
2023-11-20T01:29:31.407Z,35.63
2023-11-20T01:30:01.433Z,35.65
2023-11-20T01:30:31.478Z,35.64
2023-11-20T01:31:01.609Z,35.69
2023-11-20T01:31:31.565Z,35.64
2023-11-20T01:32:01.686Z,35.64
2023-11-20T01:32:31.625Z,35.65
2023-11-20T01:33:01.709Z,35.66
2023-11-20T01:33:31.768Z,35.68
2023-11-20T01:34:01.816Z,35.63
2023-11-20T01:34:31.818Z,35.62
2023-11-20T01:35:01.854Z,35.61
2023-11-20T01:35:31.945Z,35.64
2023-11-20T01:36:01.934Z,35.65
2023-11-20T01:36:31.964Z,35.65
2023-11-20T01:37:02.007Z,35.66
2023-11-20T01:37:32.055Z,35.65
2023-11-20T01:38:02.077Z,35.69
2023-11-20T01:38:32.097Z,35.65
2023-11-20T01:39:02.090Z,35.63
2023-11-20T01:39:32.251Z,35.63
2023-11-20T01:40:02.295Z,35.63
2023-11-20T01:40:32.332Z,35.68
2023-11-20T01:41:02.346Z,35.66
2023-11-20T01:41:34.469Z,35.66
2023-11-20T01:42:02.404Z,35.62
2023-11-20T01:42:32.537Z,35.63
2023-11-20T01:43:02.547Z,35.69
2023-11-20T01:43:32.615Z,35.68
2023-11-20T01:44:02.597Z,35.66
2023-11-20T01:44:32.625Z,35.68
2023-11-20T01:45:02.630Z,35.69
2023-11-20T01:45:32.825Z,35.65
2023-11-20T01:46:02.782Z,35.68
2023-11-20T01:46:32.929Z,35.69
2023-11-20T01:47:02.820Z,35.71
2023-11-20T01:47:32.881Z,35.69
2023-11-20T01:48:02.918Z,35.68
2023-11-20T01:48:32.997Z,35.72
2023-11-20T01:49:03.012Z,35.68
2023-11-20T01:49:33.024Z,35.66
2023-11-20T01:50:03.051Z,35.68
2023-11-20T01:50:33.061Z,35.72
2023-11-20T01:51:03.090Z,35.63
2023-11-20T01:51:33.106Z,35.72
2023-11-20T01:52:03.110Z,35.69
2023-11-20T01:52:33.142Z,35.69
2023-11-20T01:53:03.156Z,35.71
2023-11-20T01:53:33.162Z,35.68
2023-11-20T01:54:03.193Z,35.68
2023-11-20T01:54:33.298Z,35.72
2023-11-20T01:55:03.268Z,35.72
2023-11-20T01:55:33.267Z,35.66
2023-11-20T01:56:03.281Z,35.69
2023-11-20T01:56:33.300Z,35.72
2023-11-20T01:57:03.335Z,35.76
2023-11-20T01:57:33.368Z,35.72
2023-11-20T01:58:03.435Z,35.72
2023-11-20T01:58:33.462Z,35.73
2023-11-20T01:59:03.458Z,35.72
2023-11-20T01:59:33.573Z,35.66
2023-11-20T02:00:03.576Z,35.72
2023-11-20T02:00:33.591Z,35.75
2023-11-20T02:01:03.684Z,35.72
2023-11-20T02:01:33.737Z,35.72
2023-11-20T02:02:03.799Z,35.72
2023-11-20T02:02:33.783Z,35.69
2023-11-20T02:03:03.992Z,35.69
2023-11-20T02:03:34.088Z,35.70
2023-11-20T02:04:04.066Z,35.73
2023-11-20T02:04:34.041Z,35.76
2023-11-20T02:05:04.131Z,35.69
2023-11-20T02:05:34.229Z,35.73
2023-11-20T02:06:04.330Z,35.75
2023-11-20T02:06:34.471Z,35.73
2023-11-20T02:07:04.530Z,35.72
2023-11-20T02:07:34.546Z,35.79
2023-11-20T02:08:04.644Z,35.76
2023-11-20T02:08:34.760Z,35.73
2023-11-20T02:09:04.858Z,35.76
2023-11-20T02:09:34.970Z,35.74
2023-11-20T02:10:05.092Z,35.74
2023-11-20T02:10:35.041Z,35.74
2023-11-20T02:11:07.612Z,35.77
2023-11-20T02:11:35.249Z,35.82
2023-11-20T02:12:05.319Z,35.80
2023-11-20T02:12:35.438Z,35.79
2023-11-20T02:13:05.604Z,35.80
2023-11-20T02:13:35.522Z,35.72
2023-11-20T02:14:05.616Z,35.83
2023-11-20T02:14:35.633Z,35.78
2023-11-20T02:15:05.670Z,35.76
2023-11-20T02:15:35.760Z,35.78
2023-11-20T02:16:05.943Z,35.76
2023-11-20T02:16:35.868Z,35.73
2023-11-20T02:17:05.944Z,35.76
2023-11-20T02:17:36.137Z,35.75
2023-11-20T02:18:06.141Z,35.75
2023-11-20T02:18:36.229Z,35.75
2023-11-20T02:19:06.246Z,35.78
2023-11-20T02:19:36.256Z,35.79
2023-11-20T02:20:06.264Z,35.71
2023-11-20T02:20:36.272Z,35.72
2023-11-20T02:21:06.508Z,35.73
2023-11-20T02:21:36.431Z,35.72
2023-11-20T02:22:06.545Z,35.78
2023-11-20T02:22:36.488Z,35.76
2023-11-20T02:23:06.476Z,35.73
2023-11-20T02:24:06.545Z,35.72
2023-11-20T02:24:36.706Z,35.78
2023-11-20T02:25:06.708Z,35.78
2023-11-20T02:25:36.841Z,35.72
2023-11-20T02:26:06.862Z,35.76
2023-11-20T02:26:36.888Z,35.76
2023-11-20T02:27:06.910Z,35.73
2023-11-20T02:27:36.958Z,35.73
2023-11-20T02:28:06.962Z,35.72
2023-11-20T02:28:36.960Z,35.72
2023-11-20T02:29:07.094Z,35.73
2023-11-20T02:29:37.098Z,35.75
2023-11-20T02:30:07.112Z,35.73
2023-11-20T02:30:37.151Z,35.76
2023-11-20T02:31:07.215Z,35.78
2023-11-20T02:31:37.310Z,35.76
2023-11-20T02:32:07.319Z,35.67
2023-11-20T02:32:37.355Z,35.70
2023-11-20T02:33:07.444Z,35.73
2023-11-20T02:33:37.483Z,35.76
2023-11-20T02:34:07.543Z,35.70
2023-11-20T02:34:37.538Z,35.76
2023-11-20T02:35:07.537Z,35.73
2023-11-20T02:36:07.629Z,35.73
2023-11-20T02:36:37.665Z,35.75
2023-11-20T02:37:07.694Z,35.72
2023-11-20T02:37:37.732Z,35.72
2023-11-20T02:38:07.750Z,35.73
2023-11-20T02:38:37.744Z,35.70
2023-11-20T02:39:07.881Z,35.71
2023-11-20T02:39:37.897Z,35.68
2023-11-20T02:40:07.928Z,35.69
2023-11-20T02:40:38.026Z,35.68
2023-11-20T02:41:08.043Z,35.72
2023-11-20T02:41:38.056Z,35.73
2023-11-20T02:42:08.050Z,35.72
2023-11-20T02:42:38.062Z,35.70
2023-11-20T02:43:08.122Z,35.69
2023-11-20T02:43:38.152Z,35.70
2023-11-20T02:44:08.165Z,35.72
2023-11-20T02:44:38.212Z,35.68
2023-11-20T02:45:08.253Z,35.69
2023-11-20T02:45:38.301Z,35.75
2023-11-20T02:46:08.358Z,35.71
2023-11-20T02:46:38.362Z,35.66
2023-11-20T02:47:08.430Z,35.68
2023-11-20T02:47:38.458Z,35.73
2023-11-20T02:48:08.514Z,35.69
2023-11-20T02:48:38.523Z,35.69
2023-11-20T02:49:08.532Z,35.72
2023-11-20T02:49:38.549Z,35.70
2023-11-20T02:50:08.556Z,35.66
2023-11-20T02:50:38.565Z,35.72
2023-11-20T02:51:08.575Z,35.69
2023-11-20T02:51:38.613Z,35.72
2023-11-20T02:52:08.665Z,35.69
2023-11-20T02:52:38.647Z,35.66
2023-11-20T02:53:08.684Z,35.69
2023-11-20T02:53:38.666Z,35.69
2023-11-20T02:54:08.700Z,35.69
2023-11-20T02:54:38.874Z,35.69
2023-11-20T02:55:08.871Z,35.69
2023-11-20T02:55:38.869Z,35.75
2023-11-20T02:56:08.879Z,35.65
2023-11-20T02:56:38.869Z,35.72
2023-11-20T02:57:08.875Z,35.66
2023-11-20T02:57:38.938Z,35.65
2023-11-20T02:58:08.957Z,35.65
2023-11-20T02:58:38.968Z,35.66
2023-11-20T02:59:08.967Z,35.68
2023-11-20T02:59:38.996Z,35.69
2023-11-20T03:00:08.986Z,35.65
2023-11-20T03:00:39.021Z,35.72
2023-11-20T03:01:09.075Z,35.66
2023-11-20T03:01:39.170Z,35.66
2023-11-20T03:02:09.170Z,35.70
2023-11-20T03:02:39.182Z,35.66
2023-11-20T03:03:09.329Z,35.66
2023-11-20T03:03:39.416Z,35.69
2023-11-20T03:04:09.334Z,35.70
2023-11-20T03:04:39.331Z,35.69
2023-11-20T03:05:09.492Z,35.68
2023-11-20T03:05:39.337Z,35.69
2023-11-20T03:06:09.439Z,35.66
2023-11-20T03:06:39.594Z,35.68
2023-11-20T03:07:09.594Z,35.66
2023-11-20T03:07:39.547Z,35.68
2023-11-20T03:08:09.642Z,35.69
2023-11-20T03:08:39.747Z,35.69
2023-11-20T03:09:09.855Z,35.69
2023-11-20T03:09:39.959Z,35.66
2023-11-20T03:10:10.143Z,35.66
2023-11-20T03:10:40.116Z,35.66
2023-11-20T03:11:13.331Z,35.69
2023-11-20T03:11:40.269Z,35.68
2023-11-20T03:12:10.236Z,35.69
2023-11-20T03:12:40.337Z,35.68
2023-11-20T03:13:10.456Z,35.68
2023-11-20T03:13:40.561Z,35.68
2023-11-20T03:14:10.612Z,35.69
2023-11-20T03:14:40.587Z,35.72
2023-11-20T03:15:10.711Z,35.68
2023-11-20T03:15:40.773Z,35.62
2023-11-20T03:16:10.921Z,35.70
2023-11-20T03:16:40.995Z,35.70
2023-11-20T03:17:11.057Z,35.66
2023-11-20T03:17:41.038Z,35.65
2023-11-20T03:18:11.110Z,35.69
2023-11-20T03:18:41.140Z,35.68
2023-11-20T03:19:11.163Z,35.70
2023-11-20T03:19:41.149Z,35.66
2023-11-20T03:20:11.162Z,35.73
2023-11-20T03:20:41.173Z,35.66
2023-11-20T03:21:11.175Z,35.70
2023-11-20T03:21:41.227Z,35.65
2023-11-20T03:22:11.360Z,35.66
2023-11-20T03:22:41.376Z,35.69
2023-11-20T03:23:11.393Z,35.73
2023-11-20T03:23:41.398Z,35.73
2023-11-20T03:24:11.410Z,35.72
2023-11-20T03:24:41.433Z,35.63
2023-11-20T03:25:11.469Z,35.69
2023-11-20T03:25:41.536Z,35.70
2023-11-20T03:26:11.541Z,35.78
2023-11-20T03:26:41.546Z,35.75
2023-11-20T03:27:11.541Z,35.76
2023-11-20T03:27:41.672Z,35.69
2023-11-20T03:28:11.798Z,35.72
2023-11-20T03:28:41.779Z,35.76
2023-11-20T03:29:11.827Z,35.72
2023-11-20T03:29:41.818Z,35.73
2023-11-20T03:30:11.809Z,35.72
2023-11-20T03:30:41.853Z,35.72
2023-11-20T03:31:12.057Z,35.69
2023-11-20T03:31:41.908Z,35.75
2023-11-20T03:32:12.169Z,35.70
2023-11-20T03:32:42.066Z,35.70
2023-11-20T03:33:42.194Z,35.69
2023-11-20T03:34:12.208Z,35.75
2023-11-20T03:34:42.187Z,35.73
2023-11-20T03:35:12.306Z,35.72
2023-11-20T03:35:42.438Z,35.69
2023-11-20T03:36:12.470Z,35.72
2023-11-20T03:36:42.489Z,35.70
2023-11-20T03:37:12.553Z,35.74
2023-11-20T03:37:42.557Z,35.73
2023-11-20T03:38:12.553Z,35.72
2023-11-20T03:38:42.548Z,35.68
2023-11-20T03:39:12.561Z,35.73
2023-11-20T03:39:42.610Z,35.70
2023-11-20T03:40:12.758Z,35.69
2023-11-20T03:40:42.689Z,35.73
2023-11-20T03:41:12.698Z,35.77
2023-11-20T03:41:42.739Z,35.70
2023-11-20T03:42:12.723Z,35.76
2023-11-20T03:42:42.748Z,35.64
2023-11-20T03:43:12.795Z,35.73
2023-11-20T03:43:42.799Z,35.74
2023-11-20T03:44:12.808Z,35.76
2023-11-20T03:45:12.917Z,35.70
2023-11-20T03:45:42.943Z,35.76
2023-11-20T03:46:13.001Z,35.72
2023-11-20T03:46:43.056Z,35.69
2023-11-20T03:47:13.054Z,35.76
2023-11-20T03:47:43.099Z,35.67
2023-11-20T03:48:13.110Z,35.73
2023-11-20T03:48:43.126Z,35.68
2023-11-20T03:49:13.152Z,35.76
2023-11-20T03:49:43.124Z,35.76
2023-11-20T03:50:13.132Z,35.78
2023-11-20T03:50:43.158Z,35.76
2023-11-20T03:51:13.175Z,35.74
2023-11-20T03:51:43.212Z,35.77
2023-11-20T03:52:13.239Z,35.80
2023-11-20T03:52:43.262Z,35.74
2023-11-20T03:53:13.270Z,35.75
2023-11-20T03:53:43.291Z,35.68
2023-11-20T03:54:13.302Z,35.73
2023-11-20T03:54:43.341Z,35.76
2023-11-20T03:55:13.376Z,35.72
2023-11-20T03:55:43.435Z,35.72
2023-11-20T03:56:13.493Z,35.71
2023-11-20T03:56:43.500Z,35.74
2023-11-20T03:57:13.519Z,35.73
2023-11-20T03:57:43.544Z,35.73
2023-11-20T03:58:13.565Z,35.72
2023-11-20T03:58:43.566Z,35.72
2023-11-20T03:59:13.704Z,35.70
2023-11-20T03:59:43.718Z,35.73
2023-11-20T04:00:13.734Z,35.72
2023-11-20T04:00:43.776Z,35.77
2023-11-20T04:01:13.871Z,35.77
2023-11-20T04:01:43.860Z,35.76
2023-11-20T04:02:13.855Z,35.74
2023-11-20T04:02:43.894Z,35.74
2023-11-20T04:03:13.874Z,35.77
2023-11-20T04:03:43.991Z,35.73
2023-11-20T04:04:14.058Z,35.73
2023-11-20T04:04:44.113Z,35.67
2023-11-20T04:05:14.127Z,35.74
2023-11-20T04:05:44.212Z,35.73
2023-11-20T04:06:14.310Z,35.72
2023-11-20T04:06:44.421Z,35.75
2023-11-20T04:07:14.579Z,35.73
2023-11-20T04:07:44.549Z,35.70
2023-11-20T04:08:14.636Z,35.76
2023-11-20T04:08:44.729Z,35.76
2023-11-20T04:09:14.854Z,35.73
2023-11-20T04:09:45.031Z,35.73
2023-11-20T04:10:15.037Z,35.70
2023-11-20T04:10:45.005Z,35.72
2023-11-20T04:11:15.086Z,35.70
2023-11-20T04:11:45.180Z,35.70
2023-11-20T04:12:15.273Z,35.73
2023-11-20T04:12:45.414Z,35.75
2023-11-20T04:13:15.419Z,35.70
2023-11-20T04:13:45.374Z,35.72
2023-11-20T04:14:15.432Z,35.69
2023-11-20T04:14:45.456Z,35.73
2023-11-20T04:15:15.463Z,35.68
2023-11-20T04:15:45.505Z,35.72
2023-11-20T04:16:15.535Z,35.69
2023-11-20T04:16:45.563Z,35.69
2023-11-20T04:17:15.654Z,35.66
2023-11-20T04:17:45.755Z,35.70
2023-11-20T04:18:15.768Z,35.69
2023-11-20T04:18:45.986Z,35.73
2023-11-20T04:19:15.998Z,35.72
2023-11-20T04:19:46.004Z,35.64
2023-11-20T04:20:16.097Z,35.72
2023-11-20T04:20:46.159Z,35.70
2023-11-20T04:21:16.162Z,35.70
2023-11-20T04:21:46.220Z,35.69
2023-11-20T04:22:16.198Z,35.67
2023-11-20T04:22:46.216Z,35.74
2023-11-20T04:23:16.207Z,35.71
2023-11-20T04:23:46.235Z,35.72
2023-11-20T04:24:16.251Z,35.72
2023-11-20T04:24:46.286Z,35.73
2023-11-20T04:25:16.302Z,35.70
2023-11-20T04:25:46.320Z,35.67
2023-11-20T04:26:16.329Z,35.72
2023-11-20T04:26:46.329Z,35.74
2023-11-20T04:27:16.490Z,35.70
2023-11-20T04:27:46.508Z,35.72
2023-11-20T04:28:16.551Z,35.70
2023-11-20T04:28:46.580Z,35.69
2023-11-20T04:29:16.594Z,35.72
2023-11-20T04:29:46.610Z,35.73
2023-11-20T04:30:16.629Z,35.72
2023-11-20T04:30:46.704Z,35.68
2023-11-20T04:31:16.889Z,35.73
2023-11-20T04:31:46.888Z,35.70
2023-11-20T04:32:16.815Z,35.67
2023-11-20T04:32:46.886Z,35.71
2023-11-20T04:33:16.912Z,35.73
2023-11-20T04:33:46.954Z,35.74
2023-11-20T04:34:17.038Z,35.76
2023-11-20T04:34:47.063Z,35.73
2023-11-20T04:35:17.069Z,35.76
2023-11-20T04:35:47.076Z,35.74
2023-11-20T04:36:17.077Z,35.74
2023-11-20T04:36:47.113Z,35.71
2023-11-20T04:37:17.180Z,35.77
2023-11-20T04:37:47.186Z,35.71
2023-11-20T04:38:17.354Z,35.78
2023-11-20T04:38:47.217Z,35.73
2023-11-20T04:39:47.344Z,35.76
2023-11-20T04:40:17.484Z,35.87
2023-11-20T04:40:47.378Z,35.83
2023-11-20T04:41:17.398Z,35.84
2023-11-20T04:41:47.421Z,35.79
2023-11-20T04:42:17.447Z,35.92
2023-11-20T04:42:47.496Z,35.90
2023-11-20T04:43:17.500Z,35.93
2023-11-20T04:43:47.513Z,35.86
2023-11-20T04:44:17.534Z,35.83
2023-11-20T04:44:47.561Z,35.83
2023-11-20T04:45:17.573Z,35.86
2023-11-20T04:45:47.599Z,35.82
2023-11-20T04:46:17.694Z,35.86
2023-11-20T04:46:47.702Z,35.83
2023-11-20T04:47:17.719Z,35.87
2023-11-20T04:47:47.764Z,35.84
2023-11-20T04:48:17.792Z,35.98
2023-11-20T04:48:47.848Z,36.02
2023-11-20T04:49:17.840Z,35.95
2023-11-20T04:49:47.841Z,35.91
2023-11-20T04:50:17.855Z,35.93
2023-11-20T04:50:47.875Z,36.13
2023-11-20T04:51:17.886Z,36.11
2023-11-20T04:51:47.940Z,36.14
2023-11-20T04:52:18.090Z,36.11
2023-11-20T04:52:47.967Z,36.10
2023-11-20T04:53:17.991Z,36.07
2023-11-20T04:53:48.035Z,36.01
2023-11-20T04:54:17.996Z,36.02
2023-11-20T04:54:48.160Z,36.00
2023-11-20T04:55:18.157Z,36.01
2023-11-20T04:55:48.172Z,36.04
2023-11-20T04:56:18.185Z,35.97
2023-11-20T04:56:48.216Z,35.99
2023-11-20T04:57:18.215Z,35.95
2023-11-20T04:57:48.350Z,35.89
2023-11-20T04:58:18.307Z,35.88
2023-11-20T04:58:48.462Z,35.86
2023-11-20T04:59:18.373Z,35.92
2023-11-20T04:59:48.394Z,35.93
2023-11-20T05:00:18.406Z,35.87
2023-11-20T05:00:48.466Z,35.87
2023-11-20T05:01:18.534Z,35.89
2023-11-20T05:01:48.677Z,35.87
2023-11-20T05:02:18.618Z,35.86
2023-11-20T05:02:48.700Z,35.83
2023-11-20T05:03:18.741Z,35.83
2023-11-20T05:03:50.195Z,35.88
2023-11-20T05:04:18.947Z,35.77
2023-11-20T05:04:48.883Z,35.85
2023-11-20T05:05:18.985Z,35.83
2023-11-20T05:05:49.104Z,35.86
2023-11-20T05:06:19.186Z,35.84
2023-11-20T05:06:49.326Z,35.83
2023-11-20T05:07:19.274Z,35.81
2023-11-20T05:07:49.376Z,35.82
2023-11-20T05:08:19.488Z,35.73
2023-11-20T05:08:49.482Z,35.73
2023-11-20T05:09:19.502Z,35.72
2023-11-20T05:09:49.616Z,35.75
2023-11-20T05:10:19.616Z,35.74
2023-11-20T05:10:49.620Z,35.76
2023-11-20T05:11:49.628Z,35.67
2023-11-20T05:12:19.725Z,35.68
2023-11-20T05:12:49.868Z,35.68
2023-11-20T05:13:19.841Z,35.68
2023-11-20T05:13:49.933Z,35.73
2023-11-20T05:14:19.976Z,35.66
2023-11-20T05:14:49.982Z,35.72
2023-11-20T05:15:20.018Z,35.69
2023-11-20T05:15:50.084Z,35.68
2023-11-20T05:16:20.133Z,35.69
2023-11-20T05:16:50.160Z,35.71
2023-11-20T05:17:20.249Z,35.71
2023-11-20T05:17:50.298Z,35.68
2023-11-20T05:18:20.309Z,35.68
2023-11-20T05:18:50.357Z,35.73
2023-11-20T05:19:20.376Z,35.73
2023-11-20T05:19:50.428Z,35.76
2023-11-20T05:20:20.467Z,35.76
2023-11-20T05:20:50.465Z,35.76
2023-11-20T05:21:20.467Z,35.79
2023-11-20T05:21:50.518Z,35.79
2023-11-20T05:22:20.530Z,35.84
2023-11-20T05:22:50.529Z,35.82
2023-11-20T05:23:20.557Z,35.84
2023-11-20T05:23:50.552Z,35.82
2023-11-20T05:24:20.580Z,35.78
2023-11-20T05:24:50.664Z,35.98
2023-11-20T05:25:20.650Z,36.01
2023-11-20T05:25:50.774Z,35.93
2023-11-20T05:26:20.794Z,36.04
2023-11-20T05:26:50.791Z,36.07
2023-11-20T05:27:20.824Z,35.97
2023-11-20T05:27:50.837Z,36.00
2023-11-20T05:28:20.853Z,36.05
2023-11-20T05:28:50.886Z,35.96
2023-11-20T05:29:20.910Z,35.96
2023-11-20T05:29:50.940Z,35.98
2023-11-20T05:30:20.943Z,35.97
2023-11-20T05:30:51.000Z,35.98
2023-11-20T05:31:21.164Z,35.96
2023-11-20T05:31:51.190Z,35.98
2023-11-20T05:32:21.136Z,35.99
2023-11-20T05:32:51.224Z,35.98
2023-11-20T05:33:21.336Z,35.91
2023-11-20T05:33:51.459Z,35.98
2023-11-20T05:34:21.404Z,35.96
2023-11-20T05:34:51.485Z,35.97
2023-11-20T05:35:21.560Z,35.93
2023-11-20T05:35:51.608Z,35.91
2023-11-20T05:36:21.692Z,36.05
2023-11-20T05:36:51.758Z,36.03
2023-11-20T05:37:21.827Z,36.03
2023-11-20T05:37:51.901Z,36.16
2023-11-20T05:38:22.017Z,36.21
2023-11-20T05:38:51.964Z,36.18
2023-11-20T05:39:22.044Z,36.15
2023-11-20T05:39:52.117Z,36.17
2023-11-20T05:40:22.220Z,36.13
2023-11-20T05:40:52.267Z,36.17
2023-11-20T05:41:22.424Z,36.11
2023-11-20T05:41:52.412Z,36.13
2023-11-20T05:42:22.475Z,36.09
2023-11-20T05:42:52.560Z,35.98
2023-11-20T05:43:22.641Z,36.05
2023-11-20T05:43:52.696Z,36.05
2023-11-20T05:44:22.745Z,36.07
2023-11-20T05:44:52.838Z,36.10
2023-11-20T05:45:22.889Z,36.16
2023-11-20T05:45:52.986Z,36.17
2023-11-20T05:46:23.124Z,36.22
2023-11-20T05:46:53.119Z,36.28
2023-11-20T05:47:23.172Z,36.28
2023-11-20T05:47:53.342Z,36.23
2023-11-20T05:48:23.287Z,36.39
2023-11-20T05:48:53.391Z,36.41
2023-11-20T05:50:02.445Z,36.61
2023-11-20T05:50:32.501Z,36.57
2023-11-20T05:51:02.539Z,36.57
2023-11-20T05:51:32.556Z,36.61
2023-11-20T05:52:02.613Z,36.61
2023-11-20T05:52:32.681Z,36.70
2023-11-20T05:53:02.725Z,36.71
2023-11-20T05:53:32.760Z,36.67
2023-11-20T05:54:02.768Z,36.63
2023-11-20T05:54:32.808Z,36.71
2023-11-20T05:55:02.844Z,36.63
2023-11-20T05:55:32.928Z,36.55
2023-11-20T05:56:02.932Z,36.60
2023-11-20T05:56:32.970Z,36.65
2023-11-20T05:57:02.997Z,36.63
2023-11-20T05:57:33.050Z,36.58
2023-11-20T05:58:03.133Z,36.59
2023-11-20T05:58:33.174Z,36.60
2023-11-20T05:59:04.947Z,36.54
2023-11-20T05:59:33.330Z,36.57
2023-11-20T06:00:03.415Z,36.61
2023-11-20T06:00:33.522Z,36.58
2023-11-20T06:01:03.691Z,36.57
2023-11-20T06:01:33.744Z,36.49
2023-11-20T06:02:03.745Z,36.54
2023-11-20T06:02:33.796Z,36.54
2023-11-20T06:03:03.944Z,36.54
2023-11-20T06:03:33.928Z,36.51
2023-11-20T06:04:04.142Z,36.50
2023-11-20T06:04:34.190Z,36.51
2023-11-20T06:05:05.041Z,36.49
2023-11-20T06:05:34.214Z,36.45
2023-11-20T06:06:04.259Z,36.53
2023-11-20T06:06:34.353Z,36.44
2023-11-20T06:07:04.517Z,36.44
2023-11-20T06:07:34.475Z,36.45
2023-11-20T06:08:04.528Z,36.46
2023-11-20T06:08:34.603Z,36.40
2023-11-20T06:09:04.674Z,36.36
2023-11-20T06:09:34.762Z,36.43
2023-11-20T06:10:04.890Z,36.37
2023-11-20T06:10:34.960Z,36.37
2023-11-20T06:11:05.018Z,36.25
2023-11-20T06:11:35.632Z,36.40
2023-11-20T06:12:05.063Z,36.39
2023-11-20T06:12:35.123Z,36.47
2023-11-20T06:13:05.183Z,36.45
2023-11-20T06:13:35.264Z,36.32
2023-11-20T06:14:05.246Z,36.44
2023-11-20T06:14:35.307Z,36.40
2023-11-20T06:15:05.342Z,36.41
2023-11-20T06:15:35.459Z,36.60
2023-11-20T06:16:05.464Z,36.60
2023-11-20T06:16:35.499Z,36.47
2023-11-20T06:17:05.626Z,36.50
2023-11-20T06:17:35.604Z,36.45
2023-11-20T06:18:05.785Z,36.49
2023-11-20T06:18:35.703Z,36.47
2023-11-20T06:19:05.801Z,36.46
2023-11-20T06:19:35.857Z,36.52
2023-11-20T06:20:05.937Z,36.51
2023-11-20T06:20:36.019Z,36.46
2023-11-20T06:21:06.079Z,36.49
2023-11-20T06:21:36.152Z,36.46
2023-11-20T06:22:06.214Z,36.45
2023-11-20T06:22:36.299Z,36.48
2023-11-20T06:23:06.395Z,36.44
2023-11-20T06:23:36.449Z,36.45
2023-11-20T06:24:06.514Z,36.42
2023-11-20T06:24:36.624Z,36.38
2023-11-20T06:25:06.724Z,36.42
2023-11-20T06:25:36.789Z,36.43
2023-11-20T06:26:06.838Z,36.44
2023-11-20T06:26:36.862Z,36.34
2023-11-20T06:27:06.924Z,36.34
2023-11-20T06:27:37.010Z,36.34
2023-11-20T06:28:07.078Z,36.35
2023-11-20T06:28:37.137Z,36.28
2023-11-20T06:29:07.169Z,36.34
2023-11-20T06:29:37.219Z,36.28
2023-11-20T06:30:07.297Z,36.28
2023-11-20T06:30:37.464Z,36.25
2023-11-20T06:31:07.476Z,36.25
2023-11-20T06:31:37.674Z,36.33